Time;durP1;ratioP1;P1;durP2;ratioP2;P2;SDS_P1;SDS_P2;PMS_P1;PMS_P2;Temp;Humidity;BMP_temperature;BMP_pressure;BME280_temperature;BME280_humidity;BME280_pressure;Samples;Min_cycle;Max_cycle;Signal;HPM_P1;HPM_P2
2023/03/29 00:00:45;;;;;;;5.83;3.60;;;5.70;99.90;;;;;;4997797;28;20500;-82
2023/03/29 00:03:12;;;;;;;4.93;4.03;;;5.70;99.90;;;;;;4995976;28;20069;-80
2023/03/29 00:05:40;;;;;;;7.27;4.10;;;5.70;99.90;;;;;;4995967;28;20499;-81
2023/03/29 00:08:06;;;;;;;6.73;3.97;;;5.70;99.90;;;;;;5009804;28;20037;-80
2023/03/29 00:10:33;;;;;;;6.73;4.13;;;5.70;99.90;;;;;;4993792;28;20045;-80
2023/03/29 00:13:01;;;;;;;6.30;3.90;;;5.70;99.90;;;;;;4994955;28;20045;-79
2023/03/29 00:15:27;;;;;;;6.37;4.07;;;5.70;99.90;;;;;;4989851;28;20061;-80
2023/03/29 00:17:53;;;;;;;7.27;3.90;;;5.70;99.90;;;;;;4997110;28;20046;-79
2023/03/29 00:20:18;;;;;;;5.47;4.60;;;5.60;99.90;;;;;;4996086;28;20137;-80
2023/03/29 00:22:45;;;;;;;5.63;4.20;;;5.70;99.90;;;;;;5013543;28;20045;-82
2023/03/29 00:25:12;;;;;;;5.53;3.87;;;5.60;99.90;;;;;;4990443;28;20117;-83
2023/03/29 00:27:38;;;;;;;5.57;4.20;;;5.60;99.90;;;;;;4996125;28;20048;-79
2023/03/29 00:30:07;;;;;;;5.40;4.10;;;5.60;99.90;;;;;;4994653;28;20064;-79
2023/03/29 00:32:33;;;;;;;9.10;4.70;;;5.60;99.90;;;;;;4990582;28;20037;-80
2023/03/29 00:35:04;;;;;;;6.17;4.30;;;5.60;99.90;;;;;;4993806;28;20036;-79
2023/03/29 00:37:29;;;;;;;5.40;4.50;;;5.60;99.90;;;;;;4981394;28;20264;-79
2023/03/29 00:39:56;;;;;;;5.70;4.20;;;5.60;99.90;;;;;;4979857;28;20552;-82
2023/03/29 00:42:23;;;;;;;9.20;4.67;;;5.60;99.90;;;;;;4997129;28;20057;-83
2023/03/29 00:45:24;;;;;;;5.97;4.67;;;5.60;99.90;;;;;;5005807;28;20769;-82
2023/03/29 00:47:55;;;;;;;6.83;4.67;;;5.60;99.90;;;;;;4993174;28;20516;-81
2023/03/29 00:50:30;;;;;;;7.07;4.88;;;5.60;99.90;;;;;;5028120;28;20436;-80
2023/03/29 00:53:02;;;;;;;7.73;4.87;;;5.60;99.90;;;;;;5010195;28;20053;-80
2023/03/29 00:55:30;;;;;;;;;;;5.60;99.90;;;;;;5008700;28;20098;-79
2023/03/29 00:57:57;;;;;;;8.80;5.20;;;5.60;99.90;;;;;;4991973;28;20000;-82
2023/03/29 01:00:30;;;;;;;7.17;5.03;;;5.60;99.90;;;;;;4970122;28;20803;-83
2023/03/29 01:03:00;;;;;;;7.57;5.13;;;5.60;99.90;;;;;;4992972;28;20045;-82
2023/03/29 01:05:39;;;;;;;7.50;5.67;;;5.60;99.90;;;;;;4979959;28;20389;-83
2023/03/29 01:08:18;;;;;;;6.00;4.90;;;5.60;99.90;;;;;;4986149;28;20038;-82
2023/03/29 01:10:48;;;;;;;9.47;5.20;;;5.60;99.90;;;;;;4995016;28;20114;-82
2023/03/29 01:13:25;;;;;;;7.17;5.27;;;5.60;99.90;;;;;;4984316;28;20045;-82
2023/03/29 01:15:57;;;;;;;8.83;5.33;;;5.60;99.90;;;;;;5011011;28;20048;-82
2023/03/29 01:18:23;;;;;;;6.45;5.35;;;5.60;99.90;;;;;;4988128;28;20079;-82
2023/03/29 01:21:19;;;;;;;9.10;5.50;;;5.60;99.90;;;;;;4970985;28;20053;-83
2023/03/29 01:23:53;;;;;;;7.47;5.13;;;5.60;99.90;;;;;;5009558;28;20124;-82
2023/03/29 01:26:59;;;;;;;9.90;5.63;;;5.60;99.90;;;;;;4982417;28;20518;-80
2023/03/29 01:29:49;;;;;;;10.20;6.13;;;5.60;99.90;;;;;;4999650;28;20081;-79
2023/03/29 01:32:26;;;;;;;7.43;5.57;;;5.60;99.90;;;;;;5006731;28;20033;-80
2023/03/29 01:35:09;;;;;;;8.47;5.60;;;5.50;99.90;;;;;;4990601;28;20045;-79
2023/03/29 01:37:46;;;;;;;8.30;5.93;;;5.60;99.90;;;;;;5009157;28;20049;-79
2023/03/29 01:40:12;;;;;;;10.70;6.10;;;5.60;99.90;;;;;;4994997;28;20072;-80
2023/03/29 01:42:48;;;;;;;9.00;6.07;;;5.50;99.90;;;;;;4995365;28;20056;-82
2023/03/29 01:45:23;;;;;;;8.00;5.63;;;5.60;99.90;;;;;;4999473;28;20057;-81
2023/03/29 01:48:31;;;;;;;9.55;6.20;;;5.60;99.90;;;;;;4983877;28;20087;-81
2023/03/29 01:51:03;;;;;;;10.33;6.00;;;5.60;99.90;;;;;;4997400;28;20116;-82
2023/03/29 01:53:39;;;;;;;7.97;6.00;;;5.60;99.90;;;;;;5001000;28;20432;-82
2023/03/29 01:56:11;;;;;;;7.13;5.90;;;5.60;99.90;;;;;;4997502;28;20151;-80
2023/03/29 01:58:41;;;;;;;10.13;6.00;;;5.60;99.90;;;;;;5022368;28;20147;-79
2023/03/29 02:01:09;;;;;;;7.77;5.63;;;5.60;99.90;;;;;;4990107;28;20045;-79
2023/03/29 02:03:41;;;;;;;7.27;5.43;;;5.60;99.90;;;;;;4977098;28;20062;-80
2023/03/29 02:06:12;;;;;;;7.35;5.55;;;5.60;99.90;;;;;;4992814;28;20124;-79
2023/03/29 02:08:40;;;;;;;8.17;5.50;;;5.60;99.90;;;;;;4995346;28;20033;-80
2023/03/29 02:11:12;;;;;;;7.33;6.10;;;5.50;99.90;;;;;;4998988;28;20040;-79
2023/03/29 02:13:39;;;;;;;7.93;5.40;;;5.50;99.90;;;;;;4994306;28;20177;-80
2023/03/29 02:16:13;;;;;;;8.47;6.63;;;5.60;99.90;;;;;;4979803;28;20073;-79
2023/03/29 02:18:42;;;;;;;7.33;5.70;;;5.60;99.90;;;;;;4992935;28;20049;-80
2023/03/29 02:21:15;;;;;;;10.10;6.47;;;5.60;99.90;;;;;;4996767;28;20045;-79
2023/03/29 02:23:45;;;;;;;9.37;6.50;;;5.50;99.90;;;;;;4996227;28;20037;-80
2023/03/29 02:26:19;;;;;;;9.50;7.03;;;5.50;99.90;;;;;;4995777;28;20048;-80
2023/03/29 02:28:48;;;;;;;9.73;6.77;;;5.50;99.90;;;;;;4994909;28;20045;-80
2023/03/29 02:31:23;;;;;;;;;;;5.50;99.90;;;;;;4993417;28;20089;-80
2023/03/29 02:34:04;;;;;;;12.13;8.23;;;5.50;99.90;;;;;;4992693;28;19921;-79
2023/03/29 02:36:48;;;;;;;9.83;8.00;;;5.50;99.90;;;;;;4984886;28;20111;-79
2023/03/29 02:39:21;;;;;;;14.27;9.27;;;5.50;99.90;;;;;;5014771;28;20052;-80
2023/03/29 02:41:58;;;;;;;12.43;7.85;;;5.60;99.90;;;;;;4993746;28;20049;-79
2023/03/29 02:45:02;;;;;;;12.97;8.60;;;5.60;99.90;;;;;;5011449;28;20083;-80
2023/03/29 02:47:47;;;;;;;11.57;8.40;;;5.60;99.90;;;;;;4992633;28;20041;-80
2023/03/29 02:50:45;;;;;;;11.13;8.90;;;5.60;99.90;;;;;;4993874;28;20045;-79
2023/03/29 02:53:27;;;;;;;15.63;9.07;;;5.60;99.90;;;;;;4995877;28;20629;-79
2023/03/29 02:56:12;;;;;;;15.00;9.63;;;5.60;99.90;;;;;;4997456;28;20057;-80
2023/03/29 02:59:16;;;;;;;15.63;9.47;;;5.60;99.90;;;;;;4978754;28;20258;-80
2023/03/29 03:01:53;;;;;;;14.87;10.47;;;5.60;99.90;;;;;;4990428;28;20517;-80
2023/03/29 03:04:40;;;;;;;13.90;10.75;;;5.60;99.90;;;;;;4996462;28;20117;-79
2023/03/29 03:07:34;;;;;;;15.37;10.63;;;5.60;99.90;;;;;;4974119;28;20076;-79
2023/03/29 03:10:09;;;;;;;14.73;11.07;;;5.60;99.90;;;;;;4958524;28;20046;-80
2023/03/29 03:12:38;;;;;;;16.10;11.30;;;5.60;99.90;;;;;;4961866;28;20081;-79
2023/03/29 03:15:07;;;;;;;16.07;11.60;;;5.60;99.90;;;;;;4967992;28;20128;-80
2023/03/29 03:18:01;;;;;;;20.00;12.10;;;5.60;99.90;;;;;;4963785;28;20042;-80
2023/03/29 03:21:17;;;;;;;16.43;11.73;;;5.60;99.90;;;;;;4944317;28;20189;-80
2023/03/29 03:23:50;;;;;;;18.80;12.37;;;5.60;99.90;;;;;;4946901;28;20463;-79
2023/03/29 03:26:17;;;;;;;18.40;12.30;;;5.60;99.90;;;;;;4980377;28;20108;-82
2023/03/29 03:29:12;;;;;;;16.63;12.97;;;5.60;99.90;;;;;;4959205;28;20085;-81
2023/03/29 03:31:40;;;;;;;17.43;12.77;;;5.60;99.90;;;;;;4980443;28;20037;-82
2023/03/29 03:34:11;;;;;;;19.73;13.30;;;5.60;99.90;;;;;;4973469;28;20038;-82
2023/03/29 03:36:47;;;;;;;20.87;13.07;;;5.60;99.90;;;;;;4992978;28;20091;-82
2023/03/29 03:39:13;;;;;;;19.60;13.47;;;5.60;99.90;;;;;;4979570;28;20046;-82
2023/03/29 03:41:57;;;;;;;20.13;13.57;;;5.60;99.90;;;;;;4997125;28;20056;-82
2023/03/29 03:44:23;;;;;;;19.13;13.07;;;5.60;99.90;;;;;;4988908;28;20441;-83
2023/03/29 03:46:49;;;;;;;21.00;13.70;;;5.60;99.90;;;;;;4981304;28;20092;-80
2023/03/29 03:49:20;;;;;;;20.87;13.13;;;5.60;99.90;;;;;;5007723;28;20402;-80
2023/03/29 03:52:02;;;;;;;18.33;13.37;;;5.70;99.90;;;;;;4975444;28;20108;-80
2023/03/29 03:54:28;;;;;;;19.92;12.82;;;5.70;99.90;;;;;;4975000;28;20060;-79
2023/03/29 03:57:04;;;;;;;21.87;14.33;;;5.60;99.90;;;;;;4992727;28;20050;-79
2023/03/29 03:59:42;;;;;;;20.37;13.40;;;5.70;99.90;;;;;;4985900;28;20076;-81
2023/03/29 04:02:27;;;;;;;20.13;14.37;;;5.70;99.90;;;;;;4984365;28;20775;-80
2023/03/29 04:04:53;;;;;;;22.20;13.63;;;5.70;99.90;;;;;;4992160;28;20070;-79
2023/03/29 04:07:24;;;;;;;19.60;14.27;;;5.70;99.90;;;;;;4972691;28;20081;-80
2023/03/29 04:09:59;;;;;;;21.23;13.57;;;5.70;99.90;;;;;;5009153;28;20046;-79
2023/03/29 04:12:25;;;;;;;21.20;12.90;;;5.70;99.90;;;;;;4988245;28;20045;-82
2023/03/29 04:14:54;;;;;;;20.80;13.87;;;5.70;99.90;;;;;;4995171;28;20061;-82
2023/03/29 04:17:20;;;;;;;21.40;13.80;;;5.70;99.90;;;;;;4991909;28;20050;-82
2023/03/29 04:19:49;;;;;;;17.63;12.70;;;5.70;99.90;;;;;;4994754;28;20049;-82
2023/03/29 04:22:28;;;;;;;20.08;14.32;;;5.70;99.90;;;;;;4989779;28;20042;-82
2023/03/29 04:24:56;;;;;;;19.27;13.53;;;5.80;99.90;;;;;;4969092;28;21143;-81
2023/03/29 04:27:24;;;;;;;18.00;12.20;;;5.70;99.90;;;;;;4982039;28;20042;-81
2023/03/29 04:30:16;;;;;;;19.37;13.13;;;5.80;99.90;;;;;;4983737;28;20052;-81
2023/03/29 04:33:23;;;;;;;19.73;12.87;;;5.80;99.90;;;;;;4922568;28;20051;-82
2023/03/29 04:35:52;;;;;;;19.20;12.87;;;5.80;99.90;;;;;;4952216;28;20047;-82
2023/03/29 04:38:40;;;;;;;18.53;13.17;;;5.80;99.90;;;;;;4936573;29;20043;-83
2023/03/29 04:41:12;;;;;;;20.03;13.00;;;5.80;99.90;;;;;;4921074;28;20134;-82
2023/03/29 04:43:40;;;;;;;19.95;13.55;;;5.80;99.90;;;;;;4921015;28;20039;-80
2023/03/29 04:46:09;;;;;;;19.27;13.50;;;5.80;99.90;;;;;;4964765;28;20043;-80
2023/03/29 04:48:36;;;;;;;18.37;13.80;;;5.80;99.90;;;;;;4934887;28;20286;-80
2023/03/29 04:51:02;;;;;;;21.63;13.20;;;5.80;99.90;;;;;;4930384;28;20561;-80
2023/03/29 04:53:28;;;;;;;20.43;13.57;;;5.80;99.90;;;;;;4935067;28;20082;-80
2023/03/29 04:55:54;;;;;;;21.47;14.17;;;5.80;99.90;;;;;;4952418;28;20046;-80
2023/03/29 04:58:20;;;;;;;19.03;13.47;;;5.80;99.90;;;;;;4934560;28;20065;-80
2023/03/29 05:00:46;;;;;;;19.87;14.00;;;5.80;99.90;;;;;;4946972;28;20081;-82
2023/03/29 05:03:13;;;;;;;22.10;14.33;;;5.80;99.90;;;;;;4914457;28;20061;-82
2023/03/29 05:05:40;;;;;;;19.77;13.37;;;5.80;99.90;;;;;;4991202;28;20053;-83
2023/03/29 05:08:08;;;;;;;21.50;14.23;;;5.80;99.90;;;;;;4983749;28;20036;-83
2023/03/29 05:10:35;;;;;;;22.43;14.30;;;5.80;99.90;;;;;;4981129;28;20061;-83
2023/03/29 05:13:02;;;;;;;19.73;14.13;;;5.80;99.90;;;;;;4997649;28;20049;-82
2023/03/29 05:15:30;;;;;;;20.07;13.07;;;5.80;99.90;;;;;;4998671;28;20126;-82
2023/03/29 05:17:57;;;;;;;21.73;15.03;;;5.80;99.90;;;;;;4953531;28;20556;-82
2023/03/29 05:20:24;;;;;;;18.70;13.57;;;5.80;99.90;;;;;;4975258;28;20038;-82
2023/03/29 05:22:53;;;;;;;18.43;14.33;;;5.80;99.90;;;;;;4962425;28;20517;-83
2023/03/29 05:25:19;;;;;;;18.67;13.70;;;5.80;99.90;;;;;;4973896;28;20101;-83
2023/03/29 05:27:45;;;;;;;20.63;13.20;;;5.80;99.90;;;;;;4996753;28;20121;-82
2023/03/29 05:30:14;;;;;;;21.60;14.00;;;5.80;99.90;;;;;;4992104;28;20042;-81
2023/03/29 05:32:41;;;;;;;18.73;13.70;;;5.90;99.90;;;;;;4982325;28;20037;-82
2023/03/29 05:35:08;;;;;;;22.50;14.47;;;5.80;99.90;;;;;;4990286;28;20117;-81
2023/03/29 05:37:37;;;;;;;21.33;14.27;;;5.90;99.90;;;;;;4979082;28;20080;-83
2023/03/29 05:40:07;;;;;;;22.27;15.13;;;5.90;99.90;;;;;;5012753;28;20359;-83
2023/03/29 05:42:33;;;;;;;19.33;12.93;;;5.90;99.90;;;;;;4988750;28;20109;-82
2023/03/29 05:44:59;;;;;;;20.97;14.33;;;5.90;99.90;;;;;;4988270;28;20056;-82
2023/03/29 05:47:28;;;;;;;20.80;14.73;;;5.90;99.90;;;;;;4979009;28;20069;-82
2023/03/29 05:49:56;;;;;;;21.80;15.17;;;5.90;99.90;;;;;;4953191;28;20034;-82
2023/03/29 05:52:25;;;;;;;22.13;15.40;;;5.90;99.90;;;;;;4946729;28;20046;-82
2023/03/29 05:54:50;;;;;;;20.80;14.93;;;5.90;99.90;;;;;;4966800;28;20133;-83
2023/03/29 05:57:16;;;;;;;22.97;15.10;;;5.90;99.90;;;;;;4995136;28;20044;-84
2023/03/29 05:59:42;;;;;;;21.30;14.73;;;5.90;99.90;;;;;;4979275;28;20042;-81
2023/03/29 06:02:10;;;;;;;21.70;16.03;;;5.80;99.90;;;;;;4970617;28;20041;-82
2023/03/29 06:04:36;;;;;;;21.70;15.30;;;5.80;99.90;;;;;;4963853;28;20042;-82
2023/03/29 06:07:03;;;;;;;22.83;15.97;;;5.80;99.90;;;;;;4969397;28;20401;-81
2023/03/29 06:09:30;;;;;;;23.53;16.73;;;5.80;99.90;;;;;;4949758;28;20125;-82
2023/03/29 06:11:57;;;;;;;21.77;15.37;;;5.80;99.90;;;;;;5009550;28;20520;-82
2023/03/29 06:14:23;;;;;;;21.17;15.60;;;5.80;99.90;;;;;;4962002;28;20073;-82
2023/03/29 06:16:50;;;;;;;27.93;19.33;;;5.80;99.90;;;;;;4962213;28;20569;-82
2023/03/29 06:19:18;;;;;;;29.70;21.10;;;5.80;99.90;;;;;;4977737;28;20042;-82
2023/03/29 06:21:44;;;;;;;21.43;15.83;;;5.90;99.90;;;;;;4981290;28;20041;-82
2023/03/29 06:24:10;;;;;;;21.60;15.73;;;5.80;99.90;;;;;;4978770;28;20473;-82
2023/03/29 06:26:36;;;;;;;21.30;16.37;;;5.90;99.90;;;;;;4981400;28;20834;-82
2023/03/29 06:29:03;;;;;;;22.97;15.80;;;5.90;99.90;;;;;;4971732;28;20044;-81
2023/03/29 06:31:30;;;;;;;24.83;16.97;;;5.90;99.90;;;;;;4964503;28;20041;-82
2023/03/29 06:33:57;;;;;;;47.60;18.50;;;5.90;99.90;;;;;;5001814;28;20050;-82
2023/03/29 06:36:23;;;;;;;25.10;16.47;;;6.00;99.90;;;;;;5011190;28;20125;-81
2023/03/29 06:38:48;;;;;;;22.07;15.50;;;6.00;99.90;;;;;;4989033;28;20185;-81
2023/03/29 06:41:14;;;;;;;22.13;15.77;;;6.00;99.90;;;;;;5005511;28;20065;-81
2023/03/29 06:43:40;;;;;;;18.37;15.40;;;6.00;99.90;;;;;;4944754;28;20493;-80
2023/03/29 06:46:10;;;;;;;22.87;16.20;;;6.10;99.90;;;;;;4948613;28;20045;-81
2023/03/29 06:48:37;;;;;;;21.93;15.67;;;6.10;99.90;;;;;;4992208;28;20038;-82
2023/03/29 06:51:03;;;;;;;20.13;14.87;;;6.10;99.90;;;;;;4985105;28;20060;-82
2023/03/29 06:53:29;;;;;;;22.67;14.83;;;6.10;99.90;;;;;;4962738;28;20039;-82
2023/03/29 06:55:55;;;;;;;24.30;14.63;;;6.20;99.90;;;;;;4962034;28;20046;-82
2023/03/29 06:58:21;;;;;;;22.53;15.23;;;6.20;99.90;;;;;;4993315;28;20068;-82
2023/03/29 07:00:46;;;;;;;21.50;14.20;;;6.20;99.90;;;;;;4976591;28;20030;-82
2023/03/29 07:03:18;;;;;;;27.97;15.60;;;6.30;99.90;;;;;;4996174;28;20076;-82
2023/03/29 07:05:46;;;;;;;19.02;13.77;;;6.30;99.90;;;;;;4991753;28;20679;-83
2023/03/29 07:08:12;;;;;;;21.77;14.40;;;6.30;99.90;;;;;;5012649;28;20367;-82
2023/03/29 07:10:41;;;;;;;21.40;14.67;;;6.30;99.90;;;;;;5005892;28;20080;-82
2023/03/29 07:13:12;;;;;;;22.53;14.50;;;6.30;99.90;;;;;;5012210;28;20050;-82
2023/03/29 07:15:39;;;;;;;18.73;13.10;;;6.40;99.90;;;;;;5012485;28;20408;-83
2023/03/29 07:18:06;;;;;;;23.03;15.23;;;6.40;99.90;;;;;;4990080;28;20041;-82
2023/03/29 07:20:32;;;;;;;17.77;13.33;;;6.50;99.90;;;;;;4960505;28;20048;-82
2023/03/29 07:22:58;;;;;;;21.07;13.80;;;6.50;99.90;;;;;;5003995;28;20649;-83
2023/03/29 07:25:26;;;;;;;23.50;14.33;;;6.50;99.90;;;;;;4995805;28;20577;-82
2023/03/29 07:27:52;;;;;;;17.60;13.07;;;6.50;99.90;;;;;;5012165;28;20042;-83
2023/03/29 07:30:21;;;;;;;17.37;13.27;;;6.50;99.90;;;;;;5007766;28;20133;-81
2023/03/29 07:32:49;;;;;;;18.80;12.80;;;6.60;99.90;;;;;;5004327;28;20526;-82
2023/03/29 07:35:16;;;;;;;16.70;12.53;;;6.60;99.90;;;;;;4999471;28;20048;-83
2023/03/29 07:37:44;;;;;;;18.20;13.20;;;6.60;99.90;;;;;;4996877;28;20117;-82
2023/03/29 07:40:15;;;;;;;17.13;12.67;;;6.70;99.90;;;;;;5007431;28;20069;-82
2023/03/29 07:42:47;;;;;;;18.80;12.57;;;6.70;99.90;;;;;;4998578;28;20065;-82
2023/03/29 07:45:19;;;;;;;19.97;12.70;;;6.70;99.90;;;;;;4963966;28;20048;-82
2023/03/29 07:47:49;;;;;;;17.13;12.82;;;6.80;99.90;;;;;;5001173;28;20501;-83
2023/03/29 07:50:15;;;;;;;19.77;12.30;;;6.80;99.90;;;;;;4995054;28;20069;-82
2023/03/29 07:52:42;;;;;;;15.80;11.90;;;6.80;99.90;;;;;;5001093;28;20038;-82
2023/03/29 07:55:10;;;;;;;16.97;12.67;;;6.80;99.90;;;;;;5001980;28;20044;-82
2023/03/29 07:57:36;;;;;;;17.73;12.27;;;6.90;99.90;;;;;;4993338;28;20052;-81
2023/03/29 08:00:15;;;;;;;18.10;12.20;;;6.90;99.90;;;;;;4994098;28;20046;-82
2023/03/29 08:02:49;;;;;;;19.27;11.23;;;6.90;99.90;;;;;;5002129;28;20077;-81
2023/03/29 08:05:16;;;;;;;15.67;11.93;;;7.00;99.90;;;;;;4986446;28;20096;-82
2023/03/29 08:07:43;;;;;;;16.87;11.57;;;7.00;99.90;;;;;;4975502;28;20045;-82
2023/03/29 08:10:20;;;;;;;15.57;10.27;;;7.00;99.90;;;;;;4993941;28;20184;-82
2023/03/29 08:12:48;;;;;;;17.67;11.67;;;7.00;99.90;;;;;;4979048;28;20037;-83
2023/03/29 08:15:15;;;;;;;15.13;10.73;;;7.10;99.90;;;;;;4994720;28;20038;-83
2023/03/29 08:17:41;;;;;;;16.67;12.43;;;7.10;99.90;;;;;;5010962;28;20038;-83
2023/03/29 08:20:10;;;;;;;16.77;11.60;;;7.10;99.90;;;;;;5002929;28;20038;-83
2023/03/29 08:22:36;;;;;;;16.07;10.90;;;7.10;99.90;;;;;;5004877;28;20085;-83
2023/03/29 08:25:03;;;;;;;16.10;11.10;;;7.20;99.90;;;;;;4986202;28;21303;-83
2023/03/29 08:27:29;;;;;;;16.13;10.73;;;7.20;99.90;;;;;;4992877;28;20050;-83
2023/03/29 08:29:55;;;;;;;15.27;11.13;;;7.20;99.90;;;;;;4975942;28;20038;-83
2023/03/29 08:32:21;;;;;;;15.87;11.80;;;7.20;99.90;;;;;;4999764;28;20053;-83
2023/03/29 08:34:47;;;;;;;17.97;11.23;;;7.30;99.90;;;;;;4994547;28;20081;-83
2023/03/29 08:37:13;;;;;;;14.47;10.83;;;7.30;99.90;;;;;;4990761;28;20515;-83
2023/03/29 08:39:39;;;;;;;17.10;11.53;;;7.40;99.90;;;;;;4996648;28;20034;-83
2023/03/29 08:42:11;;;;;;;15.13;11.00;;;7.40;99.90;;;;;;4977247;28;20053;-83
2023/03/29 08:44:58;;;;;;;17.35;11.10;;;7.50;99.90;;;;;;5005481;28;20116;-82
2023/03/29 08:47:45;;;;;;;18.97;11.37;;;7.60;99.90;;;;;;4980734;28;20049;-83
2023/03/29 08:50:12;;;;;;;22.30;11.60;;;7.70;99.90;;;;;;4988860;28;20041;-82
2023/03/29 08:52:57;;;;;;;15.17;10.40;;;7.80;99.90;;;;;;5004502;28;20042;-83
2023/03/29 08:55:44;;;;;;;15.90;10.40;;;7.90;99.90;;;;;;4975951;28;20043;-82
2023/03/29 08:58:24;;;;;;;18.80;11.43;;;8.20;99.90;;;;;;4999661;28;20049;-81
2023/03/29 09:00:56;;;;;;;14.60;10.17;;;8.30;99.90;;;;;;5009622;28;20049;-81
2023/03/29 09:03:24;;;;;;;18.20;10.30;;;8.40;99.90;;;;;;4998769;28;20101;-81
2023/03/29 09:05:57;;;;;;;14.23;9.97;;;8.50;99.90;;;;;;4995248;28;20050;-83
2023/03/29 09:08:25;;;;;;;13.33;9.60;;;8.50;99.90;;;;;;5009547;28;20042;-83
2023/03/29 09:11:23;;;;;;;16.37;10.47;;;8.60;99.90;;;;;;4998520;28;20053;-81
2023/03/29 09:14:00;;;;;;;28.90;10.80;;;8.60;99.90;;;;;;4982549;28;20100;-82
2023/03/29 09:16:36;;;;;;;13.80;9.90;;;8.60;99.90;;;;;;4984681;28;20046;-82
2023/03/29 09:19:15;;;;;;;14.83;10.40;;;8.70;99.90;;;;;;4983428;28;20535;-80
2023/03/29 09:21:51;;;;;;;12.37;8.93;;;8.70;99.90;;;;;;5002305;28;20049;-80
2023/03/29 09:24:45;;;;;;;13.23;10.00;;;8.70;99.90;;;;;;5012738;28;20501;-82
2023/03/29 09:27:43;;;;;;;14.00;9.20;;;8.70;99.90;;;;;;4997773;28;20074;-79
2023/03/29 09:30:18;;;;;;;13.53;9.80;;;8.80;99.90;;;;;;5007539;28;20038;-80
2023/03/29 09:33:08;;;;;;;15.00;9.87;;;8.80;99.90;;;;;;5011890;28;20417;-81
2023/03/29 09:35:52;;;;;;;14.13;9.80;;;9.00;99.90;;;;;;4986079;28;20046;-80
2023/03/29 09:38:19;;;;;;;15.03;9.80;;;9.10;99.90;;;;;;4996035;28;20425;-81
2023/03/29 09:40:56;;;;;;;11.77;9.37;;;9.20;99.90;;;;;;5004528;28;20055;-80
2023/03/29 09:43:30;;;;;;;12.80;9.60;;;9.30;99.90;;;;;;5014326;28;20123;-80
2023/03/29 09:45:59;;;;;;;15.63;10.17;;;9.40;99.90;;;;;;5011724;28;20041;-81
2023/03/29 09:48:28;;;;;;;16.17;9.60;;;9.50;99.90;;;;;;5006743;28;20044;-81
2023/03/29 09:50:53;;;;;;;15.33;9.60;;;9.60;99.90;;;;;;5012612;28;20033;-80
2023/03/29 09:53:20;;;;;;;17.20;10.37;;;9.60;99.90;;;;;;4974438;28;20504;-80
2023/03/29 09:55:48;;;;;;;15.87;9.73;;;9.70;99.90;;;;;;4977951;28;20084;-81
2023/03/29 09:58:26;;;;;;;13.57;10.00;;;9.80;99.90;;;;;;4999428;28;20045;-80
2023/03/29 10:00:55;;;;;;;14.60;9.37;;;9.80;99.90;;;;;;4997236;28;20039;-80
2023/03/29 10:03:27;;;;;;;14.60;9.93;;;9.80;99.90;;;;;;4999901;28;20052;-80
2023/03/29 10:05:56;;;;;;;17.08;9.23;;;9.90;99.90;;;;;;5003026;28;20400;-80
2023/03/29 10:08:27;;;;;;;14.60;9.60;;;10.00;99.90;;;;;;5015344;28;20777;-82
2023/03/29 10:10:57;;;;;;;15.25;9.95;;;10.00;99.90;;;;;;4997599;28;20602;-80
2023/03/29 10:13:28;;;;;;;16.57;10.10;;;10.10;99.90;;;;;;4994424;28;20049;-80
2023/03/29 10:16:06;;;;;;;15.30;9.37;;;10.10;99.90;;;;;;4983528;28;20124;-80
2023/03/29 10:18:38;;;;;;;14.63;9.17;;;10.20;99.90;;;;;;5004953;28;20079;-79
2023/03/29 10:21:04;;;;;;;18.17;10.77;;;10.20;99.90;;;;;;4995015;28;20112;-80
2023/03/29 10:23:36;;;;;;;16.10;10.10;;;10.20;99.90;;;;;;4995478;28;20088;-79
2023/03/29 10:26:04;;;;;;;;;;;10.20;99.90;;;;;;4999516;28;20059;-81
2023/03/29 10:28:31;;;;;;;13.90;9.83;;;10.30;99.90;;;;;;4999585;28;19987;-80
2023/03/29 10:30:59;;;;;;;12.27;9.90;;;10.30;99.90;;;;;;4998970;28;20117;-80
2023/03/29 10:33:33;;;;;;;15.43;10.27;;;10.40;99.90;;;;;;5015049;28;20041;-81
2023/03/29 10:36:03;;;;;;;17.83;10.90;;;10.40;99.90;;;;;;5014110;28;20041;-81
2023/03/29 10:38:29;;;;;;;18.87;10.87;;;10.50;99.90;;;;;;4992976;28;20045;-81
2023/03/29 10:41:04;;;;;;;16.13;10.87;;;10.50;99.90;;;;;;4987106;28;20060;-82
2023/03/29 10:43:41;;;;;;;13.60;10.53;;;10.50;99.90;;;;;;5009581;28;20111;-81
2023/03/29 10:46:31;;;;;;;16.93;11.37;;;10.60;99.90;;;;;;4996974;28;20040;-81
2023/03/29 10:49:09;;;;;;;23.97;13.83;;;10.60;99.90;;;;;;5000742;28;20033;-80
2023/03/29 10:51:42;;;;;;;17.47;10.57;;;10.60;99.90;;;;;;5008642;28;20704;-81
2023/03/29 10:54:13;;;;;;;28.40;14.67;;;10.80;99.90;;;;;;4996348;28;20041;-82
2023/03/29 10:57:10;;;;;;;17.33;11.93;;;10.80;99.90;;;;;;4992158;28;20406;-81
2023/03/29 10:59:45;;;;;;;17.63;12.03;;;10.90;99.90;;;;;;5012080;28;20056;-81
2023/03/29 11:02:13;;;;;;;19.63;12.40;;;11.00;99.90;;;;;;4996103;28;20057;-80
2023/03/29 11:05:14;;;;;;;18.60;11.50;;;11.20;99.90;;;;;;5002421;28;20482;-81
2023/03/29 11:08:18;;;;;;;19.07;12.13;;;11.40;99.90;;;;;;4989463;28;20029;-80
2023/03/29 11:11:26;;;;;;;18.50;11.47;;;11.50;99.90;;;;;;5005872;28;20044;-82
2023/03/29 11:14:12;;;;;;;18.00;11.83;;;11.70;99.90;;;;;;4959864;28;20045;-81
2023/03/29 11:16:48;;;;;;;16.80;11.57;;;11.90;99.90;;;;;;4983705;28;20042;-81
2023/03/29 11:19:19;;;;;;;14.23;10.97;;;12.30;99.90;;;;;;4979287;28;20048;-80
2023/03/29 11:21:57;;;;;;;15.57;11.10;;;12.40;99.90;;;;;;4999811;28;20394;-81
2023/03/29 11:25:10;;;;;;;14.83;11.70;;;12.60;99.90;;;;;;5010932;28;20076;-81
2023/03/29 11:28:02;;;;;;;16.50;11.90;;;12.70;99.90;;;;;;4898026;29;20500;-80
2023/03/29 11:30:31;;;;;;;16.20;11.15;;;12.80;99.90;;;;;;4893854;29;20083;-81
2023/03/29 11:33:00;;;;;;;15.65;11.52;;;12.90;99.90;;;;;;4976916;28;20180;-81
2023/03/29 11:35:38;;;;;;;14.25;11.07;;;13.00;99.90;;;;;;5013048;28;20048;-81
2023/03/29 11:38:04;;;;;;;17.17;10.70;;;13.00;99.90;;;;;;5008805;28;20041;-81
2023/03/29 11:40:52;;;;;;;13.65;11.07;;;12.90;99.90;;;;;;5009906;28;20144;-81
2023/03/29 11:43:36;;;;;;;14.00;10.77;;;12.90;99.90;;;;;;4997279;28;20056;-81
2023/03/29 11:46:16;;;;;;;15.00;10.63;;;13.00;99.90;;;;;;4983992;28;20071;-79
2023/03/29 11:49:11;;;;;;;12.82;10.23;;;12.90;99.90;;;;;;5003299;28;20037;-80
2023/03/29 11:51:58;;;;;;;14.75;10.50;;;12.90;99.90;;;;;;5000731;28;20103;-81
2023/03/29 11:54:37;;;;;;;12.57;9.65;;;12.90;99.90;;;;;;4978380;28;20080;-81
2023/03/29 11:57:26;;;;;;;11.88;8.90;;;13.00;99.90;;;;;;5004383;28;20041;-82
2023/03/29 12:00:04;;;;;;;18.08;9.25;;;13.10;99.90;;;;;;4977411;28;20076;-81
2023/03/29 12:02:38;;;;;;;11.35;8.90;;;13.10;99.90;;;;;;5014505;28;20687;-81
2023/03/29 12:05:21;;;;;;;13.43;9.25;;;13.20;99.90;;;;;;5014576;28;20041;-81
2023/03/29 12:08:09;;;;;;;10.25;8.55;;;13.30;99.90;;;;;;4999978;28;20037;-83
2023/03/29 12:11:12;;;;;;;12.90;8.80;;;13.30;99.90;;;;;;4997112;28;20042;-82
2023/03/29 12:13:44;;;;;;;11.55;8.77;;;13.30;99.90;;;;;;4997689;28;20037;-82
2023/03/29 12:16:33;;;;;;;14.02;8.75;;;13.30;99.90;;;;;;5010800;28;20037;-82
2023/03/29 12:19:07;;;;;;;10.77;8.48;;;13.30;99.90;;;;;;5003144;28;20042;-81
2023/03/29 12:21:35;;;;;;;11.57;8.98;;;13.30;99.90;;;;;;4998421;28;20056;-81
2023/03/29 12:24:01;;;;;;;11.23;8.90;;;13.40;99.90;;;;;;4981491;28;20041;-80
2023/03/29 12:26:41;;;;;;;12.07;9.15;;;13.50;99.90;;;;;;4980553;28;20037;-82
2023/03/29 12:29:34;;;;;;;12.63;8.73;;;13.60;99.90;;;;;;4994396;28;20042;-81
2023/03/29 12:32:11;;;;;;;11.73;8.15;;;13.70;99.90;;;;;;4983951;28;20064;-81
2023/03/29 12:35:04;;;;;;;14.30;8.93;;;13.80;99.90;;;;;;5008234;28;20401;-80
2023/03/29 12:38:14;;;;;;;10.98;8.70;;;13.90;99.90;;;;;;4993135;28;20049;-81
2023/03/29 12:40:52;;;;;;;114.25;16.38;;;14.20;99.90;;;;;;4881784;29;20055;-80
2023/03/29 12:43:31;;;;;;;10.45;7.93;;;14.40;99.90;;;;;;4880340;29;20048;-81
2023/03/29 12:46:06;;;;;;;13.77;9.05;;;14.50;99.90;;;;;;4956820;28;20448;-82
2023/03/29 12:48:32;;;;;;;12.70;8.57;;;14.50;99.90;;;;;;4997313;28;20069;-80
2023/03/29 12:51:03;;;;;;;13.20;7.90;;;14.50;99.90;;;;;;4987546;28;20121;-80
2023/03/29 12:53:38;;;;;;;11.02;9.00;;;14.40;99.90;;;;;;4984078;28;21205;-80
2023/03/29 12:56:07;;;;;;;11.32;8.00;;;14.20;99.90;;;;;;5007287;28;20050;-81
2023/03/29 12:58:41;;;;;;;11.48;8.93;;;14.20;99.90;;;;;;4989811;28;20049;-80
2023/03/29 13:01:22;;;;;;;11.52;8.95;;;14.10;99.90;;;;;;4992069;28;20038;-81
2023/03/29 13:03:51;;;;;;;14.20;8.52;;;14.00;99.90;;;;;;4991503;28;20076;-80
2023/03/29 13:07:01;;;;;;;13.07;8.48;;;13.90;99.90;;;;;;5011775;28;20033;-80
2023/03/29 13:09:35;;;;;;;14.60;8.48;;;13.90;99.90;;;;;;4998444;28;20832;-81
2023/03/29 13:12:06;;;;;;;12.38;8.55;;;13.90;99.90;;;;;;4981330;28;20037;-81
2023/03/29 13:14:36;;;;;;;11.38;7.97;;;13.90;99.90;;;;;;4996594;28;20548;-80